sensor_id;sensor_type;location;lat;lon;timestamp;temperature;humidity
9662;DHT22;24982;52.344;12.990;2022-11-12T00:00:18;8.50;99.90
9662;DHT22;24982;52.344;12.990;2022-11-12T00:03:39;8.50;99.90
9662;DHT22;24982;52.344;12.990;2022-11-12T00:07:00;8.40;99.90
9662;DHT22;24982;52.344;12.990;2022-11-12T00:10:22;8.50;99.90
9662;DHT22;24982;52.344;12.990;2022-11-12T00:13:43;9.20;99.90
9662;DHT22;24982;52.344;12.990;2022-11-12T00:17:04;8.50;99.90
9662;DHT22;24982;52.344;12.990;2022-11-12T00:27:07;8.30;99.90
9662;DHT22;24982;52.344;12.990;2022-11-12T00:30:27;8.30;99.90
9662;DHT22;24982;52.344;12.990;2022-11-12T00:33:48;8.30;99.90
9662;DHT22;24982;52.344;12.990;2022-11-12T00:37:08;8.30;99.90
9662;DHT22;24982;52.344;12.990;2022-11-12T00:40:29;8.20;99.90
9662;DHT22;24982;52.344;12.990;2022-11-12T00:43:51;8.40;99.90
9662;DHT22;24982;52.344;12.990;2022-11-12T00:47:11;8.40;99.90
9662;DHT22;24982;52.344;12.990;2022-11-12T00:50:31;8.40;99.90
9662;DHT22;24982;52.344;12.990;2022-11-12T00:53:52;8.30;99.90
9662;DHT22;24982;52.344;12.990;2022-11-12T00:57:13;8.40;99.90
9662;DHT22;24982;52.344;12.990;2022-11-12T01:00:35;8.10;99.90
9662;DHT22;24982;52.344;12.990;2022-11-12T01:03:56;7.90;99.90
9662;DHT22;24982;52.344;12.990;2022-11-12T01:07:17;8.10;99.90
9662;DHT22;24982;52.344;12.990;2022-11-12T01:10:38;8.20;99.90
9662;DHT22;24982;52.344;12.990;2022-11-12T01:13:59;8.20;99.90
9662;DHT22;24982;52.344;12.990;2022-11-12T01:17:22;8.30;99.90
9662;DHT22;24982;52.344;12.990;2022-11-12T01:20:42;8.40;99.90
9662;DHT22;24982;52.344;12.990;2022-11-12T01:24:03;8.40;99.90
9662;DHT22;24982;52.344;12.990;2022-11-12T01:27:23;8.30;99.90
9662;DHT22;24982;52.344;12.990;2022-11-12T01:30:44;8.30;99.90
9662;DHT22;24982;52.344;12.990;2022-11-12T01:34:07;8.30;99.90
9662;DHT22;24982;52.344;12.990;2022-11-12T01:37:28;8.30;99.90
9662;DHT22;24982;52.344;12.990;2022-11-12T01:40:49;8.20;99.90
9662;DHT22;24982;52.344;12.990;2022-11-12T01:44:12;8.20;99.90
9662;DHT22;24982;52.344;12.990;2022-11-12T01:47:34;8.20;99.90
9662;DHT22;24982;52.344;12.990;2022-11-12T01:54:19;8.00;99.90
9662;DHT22;24982;52.344;12.990;2022-11-12T02:04:25;7.80;99.90
9662;DHT22;24982;52.344;12.990;2022-11-12T02:07:48;7.90;99.90
9662;DHT22;24982;52.344;12.990;2022-11-12T02:11:12;8.00;99.90
9662;DHT22;24982;52.344;12.990;2022-11-12T02:14:33;7.90;99.90
9662;DHT22;24982;52.344;12.990;2022-11-12T02:17:54;8.00;99.90
9662;DHT22;24982;52.344;12.990;2022-11-12T02:21:19;8.10;99.90
9662;DHT22;24982;52.344;12.990;2022-11-12T02:24:39;8.20;99.90
9662;DHT22;24982;52.344;12.990;2022-11-12T02:28:02;8.10;99.90
9662;DHT22;24982;52.344;12.990;2022-11-12T05:31:54;7.50;99.90
9662;DHT22;24982;52.344;12.990;2022-11-12T05:35:15;7.50;99.90
9662;DHT22;24982;52.344;12.990;2022-11-12T05:38:35;7.30;99.90
9662;DHT22;24982;52.344;12.990;2022-11-12T05:41:57;7.40;99.90
9662;DHT22;24982;52.344;12.990;2022-11-12T05:45:19;7.40;99.90
9662;DHT22;24982;52.344;12.990;2022-11-12T05:48:40;7.40;99.90
9662;DHT22;24982;52.344;12.990;2022-11-12T05:52:00;7.30;99.90
9662;DHT22;24982;52.344;12.990;2022-11-12T05:55:21;7.30;99.90
9662;DHT22;24982;52.344;12.990;2022-11-12T05:58:41;7.50;99.90
9662;DHT22;24982;52.344;12.990;2022-11-12T06:02:03;7.30;99.90
9662;DHT22;24982;52.344;12.990;2022-11-12T06:05:23;7.50;99.90
9662;DHT22;24982;52.344;12.990;2022-11-12T06:08:44;7.40;99.90
9662;DHT22;24982;52.344;12.990;2022-11-12T06:12:05;7.80;99.90
9662;DHT22;24982;52.344;12.990;2022-11-12T06:15:26;7.50;99.90
9662;DHT22;24982;52.344;12.990;2022-11-12T06:18:48;7.40;99.90
9662;DHT22;24982;52.344;12.990;2022-11-12T06:22:08;7.60;99.90
9662;DHT22;24982;52.344;12.990;2022-11-12T06:25:29;7.50;99.90
9662;DHT22;24982;52.344;12.990;2022-11-12T06:28:49;7.50;99.90
9662;DHT22;24982;52.344;12.990;2022-11-12T06:32:10;7.50;99.90
9662;DHT22;24982;52.344;12.990;2022-11-12T06:35:32;7.30;99.90
9662;DHT22;24982;52.344;12.990;2022-11-12T06:38:53;7.40;99.90
9662;DHT22;24982;52.344;12.990;2022-11-12T06:42:14;7.60;99.90
9662;DHT22;24982;52.344;12.990;2022-11-12T06:45:36;7.60;99.90
9662;DHT22;24982;52.344;12.990;2022-11-12T06:48:56;7.40;99.90
9662;DHT22;24982;52.344;12.990;2022-11-12T06:52:18;7.40;99.90
9662;DHT22;24982;52.344;12.990;2022-11-12T06:55:38;7.40;99.90
9662;DHT22;24982;52.344;12.990;2022-11-12T06:58:59;7.40;99.90
9662;DHT22;24982;52.344;12.990;2022-11-12T07:02:19;7.50;99.90
9662;DHT22;24982;52.344;12.990;2022-11-12T07:29:14;7.00;99.90
9662;DHT22;24982;52.344;12.990;2022-11-12T07:32:35;7.00;99.90
9662;DHT22;24982;52.344;12.990;2022-11-12T07:35:57;7.00;99.90
9662;DHT22;24982;52.344;12.990;2022-11-12T07:39:18;7.30;99.90
9662;DHT22;24982;52.344;12.990;2022-11-12T07:42:40;7.50;99.90
9662;DHT22;24982;52.344;12.990;2022-11-12T07:46:02;7.70;99.90
9662;DHT22;24982;52.344;12.990;2022-11-12T07:49:22;7.80;99.90
9662;DHT22;24982;52.344;12.990;2022-11-12T07:52:43;7.90;99.90
9662;DHT22;24982;52.344;12.990;2022-11-12T07:56:04;7.80;99.90
9662;DHT22;24982;52.344;12.990;2022-11-12T07:59:26;7.90;99.90
9662;DHT22;24982;52.344;12.990;2022-11-12T08:02:46;7.80;99.90
9662;DHT22;24982;52.344;12.990;2022-11-12T08:06:09;7.90;99.90
9662;DHT22;24982;52.344;12.990;2022-11-12T08:09:30;7.90;99.90
9662;DHT22;24982;52.344;12.990;2022-11-12T08:12:50;7.90;99.90
9662;DHT22;24982;52.344;12.990;2022-11-12T08:16:16;7.90;99.90
9662;DHT22;24982;52.344;12.990;2022-11-12T08:19:37;7.90;99.90
9662;DHT22;24982;52.344;12.990;2022-11-12T08:23:00;8.00;99.90
9662;DHT22;24982;52.344;12.990;2022-11-12T08:26:22;8.00;99.90
9662;DHT22;24982;52.344;12.990;2022-11-12T08:29:42;8.10;99.90
9662;DHT22;24982;52.344;12.990;2022-11-12T08:33:05;8.20;99.90
9662;DHT22;24982;52.344;12.990;2022-11-12T08:36:25;8.20;99.90
9662;DHT22;24982;52.344;12.990;2022-11-12T08:39:46;8.20;99.90
9662;DHT22;24982;52.344;12.990;2022-11-12T08:43:08;8.20;99.90
9662;DHT22;24982;52.344;12.990;2022-11-12T08:46:29;8.20;99.90
9662;DHT22;24982;52.344;12.990;2022-11-12T08:49:51;8.20;99.90
9662;DHT22;24982;52.344;12.990;2022-11-12T08:53:12;8.30;99.90
9662;DHT22;24982;52.344;12.990;2022-11-12T08:56:33;8.30;99.90
9662;DHT22;24982;52.344;12.990;2022-11-12T08:59:53;8.50;99.90
9662;DHT22;24982;52.344;12.990;2022-11-12T09:03:15;8.60;99.90
9662;DHT22;24982;52.344;12.990;2022-11-12T09:06:37;8.70;99.90
9662;DHT22;24982;52.344;12.990;2022-11-12T09:09:58;8.90;99.90
9662;DHT22;24982;52.344;12.990;2022-11-12T09:13:19;9.00;99.90
9662;DHT22;24982;52.344;12.990;2022-11-12T09:16:39;9.00;99.90
9662;DHT22;24982;52.344;12.990;2022-11-12T09:20:00;9.20;99.90
9662;DHT22;24982;52.344;12.990;2022-11-12T09:23:22;9.30;99.90
9662;DHT22;24982;52.344;12.990;2022-11-12T09:26:42;9.40;99.90
9662;DHT22;24982;52.344;12.990;2022-11-12T09:33:26;9.30;99.90
9662;DHT22;24982;52.344;12.990;2022-11-12T09:36:48;9.50;99.90
9662;DHT22;24982;52.344;12.990;2022-11-12T09:40:15;9.60;99.90
9662;DHT22;24982;52.344;12.990;2022-11-12T09:43:40;9.80;99.90
9662;DHT22;24982;52.344;12.990;2022-11-12T09:47:05;10.00;99.90
9662;DHT22;24982;52.344;12.990;2022-11-12T09:53:53;10.50;99.90
9662;DHT22;24982;52.344;12.990;2022-11-12T09:57:15;10.70;99.90
9662;DHT22;24982;52.344;12.990;2022-11-12T10:00:36;10.70;99.90
9662;DHT22;24982;52.344;12.990;2022-11-12T10:04:05;11.20;99.90
9662;DHT22;24982;52.344;12.990;2022-11-12T10:24:50;12.10;99.90
9662;DHT22;24982;52.344;12.990;2022-11-12T10:28:19;12.30;99.90
9662;DHT22;24982;52.344;12.990;2022-11-12T10:35:04;12.50;99.90
9662;DHT22;24982;52.344;12.990;2022-11-12T10:38:26;12.50;99.90
9662;DHT22;24982;52.344;12.990;2022-11-12T10:42:01;12.60;99.90
9662;DHT22;24982;52.344;12.990;2022-11-12T10:45:22;12.60;99.90
9662;DHT22;24982;52.344;12.990;2022-11-12T10:48:52;12.60;99.90
9662;DHT22;24982;52.344;12.990;2022-11-12T10:52:23;12.60;99.90
9662;DHT22;24982;52.344;12.990;2022-11-12T10:55:55;12.70;99.90
9662;DHT22;24982;52.344;12.990;2022-11-12T10:59:17;12.70;99.90
9662;DHT22;24982;52.344;12.990;2022-11-12T11:02:45;12.60;99.90
9662;DHT22;24982;52.344;12.990;2022-11-12T11:06:20;12.60;99.90
9662;DHT22;24982;52.344;12.990;2022-11-12T11:40:53;12.80;99.90
9662;DHT22;24982;52.344;12.990;2022-11-12T11:44:24;13.80;99.90
9662;DHT22;24982;52.344;12.990;2022-11-12T11:54:57;14.70;99.90
9662;DHT22;24982;52.344;12.990;2022-11-12T12:22:44;14.60;99.90
9662;DHT22;24982;52.344;12.990;2022-11-12T12:26:10;14.40;99.90
9662;DHT22;24982;52.344;12.990;2022-11-12T12:29:36;14.30;99.90
9662;DHT22;24982;52.344;12.990;2022-11-12T12:33:07;14.30;99.90
9662;DHT22;24982;52.344;12.990;2022-11-12T12:36:35;14.50;99.90
9662;DHT22;24982;52.344;12.990;2022-11-12T12:40:00;14.60;99.90
9662;DHT22;24982;52.344;12.990;2022-11-12T12:43:27;14.70;99.90
9662;DHT22;24982;52.344;12.990;2022-11-12T12:46:54;14.90;99.90
9662;DHT22;24982;52.344;12.990;2022-11-12T12:50:19;14.90;99.90
9662;DHT22;24982;52.344;12.990;2022-11-12T12:53:41;14.80;99.90
9662;DHT22;24982;52.344;12.990;2022-11-12T12:57:02;15.00;99.90
9662;DHT22;24982;52.344;12.990;2022-11-12T13:00:25;15.10;99.90
9662;DHT22;24982;52.344;12.990;2022-11-12T13:03:54;15.10;99.90
9662;DHT22;24982;52.344;12.990;2022-11-12T13:07:18;15.20;99.90
9662;DHT22;24982;52.344;12.990;2022-11-12T13:10:49;15.10;99.90
9662;DHT22;24982;52.344;12.990;2022-11-12T13:14:44;15.00;99.90
9662;DHT22;24982;52.344;12.990;2022-11-12T13:18:09;15.00;99.90
9662;DHT22;24982;52.344;12.990;2022-11-12T13:21:31;15.00;99.90
9662;DHT22;24982;52.344;12.990;2022-11-12T13:25:05;15.10;99.90
9662;DHT22;24982;52.344;12.990;2022-11-12T13:28:25;15.20;99.90
9662;DHT22;24982;52.344;12.990;2022-11-12T13:31:46;15.40;99.90
9662;DHT22;24982;52.344;12.990;2022-11-12T13:35:23;15.30;99.90
9662;DHT22;24982;52.344;12.990;2022-11-12T13:38:44;15.20;99.90
9662;DHT22;24982;52.344;12.990;2022-11-12T13:42:12;15.10;99.90
9662;DHT22;24982;52.344;12.990;2022-11-12T13:45:53;14.90;99.90
9662;DHT22;24982;52.344;12.990;2022-11-12T13:49:16;14.80;99.90
9662;DHT22;24982;52.344;12.990;2022-11-12T13:52:38;14.60;99.90
9662;DHT22;24982;52.344;12.990;2022-11-12T13:55:59;14.50;99.90
9662;DHT22;24982;52.344;12.990;2022-11-12T13:59:22;14.40;99.90
9662;DHT22;24982;52.344;12.990;2022-11-12T14:06:14;14.20;99.90
9662;DHT22;24982;52.344;12.990;2022-11-12T14:13:26;12.70;99.90
9662;DHT22;24982;52.344;12.990;2022-11-12T14:17:00;13.10;99.90
9662;DHT22;24982;52.344;12.990;2022-11-12T14:51:17;11.80;99.90
9662;DHT22;24982;52.344;12.990;2022-11-12T14:58:02;11.60;99.90
9662;DHT22;24982;52.344;12.990;2022-11-12T15:08:12;11.30;99.90
9662;DHT22;24982;52.344;12.990;2022-11-12T15:11:47;11.20;99.90
9662;DHT22;24982;52.344;12.990;2022-11-12T15:15:16;11.10;99.90
9662;DHT22;24982;52.344;12.990;2022-11-12T15:18:39;11.10;99.90
9662;DHT22;24982;52.344;12.990;2022-11-12T15:22:00;11.10;99.90
9662;DHT22;24982;52.344;12.990;2022-11-12T15:28:57;11.00;99.90
9662;DHT22;24982;52.344;12.990;2022-11-12T15:32:31;10.80;99.90
9662;DHT22;24982;52.344;12.990;2022-11-12T15:39:16;10.70;99.90
9662;DHT22;24982;52.344;12.990;2022-11-12T15:42:39;10.60;99.90
9662;DHT22;24982;52.344;12.990;2022-11-12T15:46:01;10.60;99.90
9662;DHT22;24982;52.344;12.990;2022-11-12T15:49:23;10.50;99.90
9662;DHT22;24982;52.344;12.990;2022-11-12T15:56:07;10.40;99.90
9662;DHT22;24982;52.344;12.990;2022-11-12T15:59:32;10.30;99.90
9662;DHT22;24982;52.344;12.990;2022-11-12T16:06:17;10.10;99.90
9662;DHT22;24982;52.344;12.990;2022-11-12T16:09:38;10.20;99.90
9662;DHT22;24982;52.344;12.990;2022-11-12T16:33:11;9.90;99.90
9662;DHT22;24982;52.344;12.990;2022-11-12T16:36:32;9.90;99.90
9662;DHT22;24982;52.344;12.990;2022-11-12T16:39:52;9.80;99.90
9662;DHT22;24982;52.344;12.990;2022-11-12T16:43:13;9.70;99.90
9662;DHT22;24982;52.344;12.990;2022-11-12T16:56:40;9.50;99.90
9662;DHT22;24982;52.344;12.990;2022-11-12T17:00:01;9.50;99.90
9662;DHT22;24982;52.344;12.990;2022-11-12T17:03:21;9.40;99.90
9662;DHT22;24982;52.344;12.990;2022-11-12T17:06:43;9.20;99.90
9662;DHT22;24982;52.344;12.990;2022-11-12T17:10:05;9.40;99.90
9662;DHT22;24982;52.344;12.990;2022-11-12T17:13:25;10.00;99.90
9662;DHT22;24982;52.344;12.990;2022-11-12T17:16:46;9.50;99.90
9662;DHT22;24982;52.344;12.990;2022-11-12T17:20:07;9.40;99.90
9662;DHT22;24982;52.344;12.990;2022-11-12T17:26:50;9.40;99.90
9662;DHT22;24982;52.344;12.990;2022-11-12T17:30:11;9.40;99.90
9662;DHT22;24982;52.344;12.990;2022-11-12T17:36:57;9.30;99.90
9662;DHT22;24982;52.344;12.990;2022-11-12T17:40:19;9.30;99.90
9662;DHT22;24982;52.344;12.990;2022-11-12T17:43:40;9.20;99.90
9662;DHT22;24982;52.344;12.990;2022-11-12T17:47:00;9.10;99.90
9662;DHT22;24982;52.344;12.990;2022-11-12T17:53:42;9.10;99.90
9662;DHT22;24982;52.344;12.990;2022-11-12T17:57:03;9.10;99.90
9662;DHT22;24982;52.344;12.990;2022-11-12T18:00:24;9.10;99.90
9662;DHT22;24982;52.344;12.990;2022-11-12T18:03:46;9.10;99.90
9662;DHT22;24982;52.344;12.990;2022-11-12T18:07:08;9.00;99.90
9662;DHT22;24982;52.344;12.990;2022-11-12T18:10:29;9.00;99.90
9662;DHT22;24982;52.344;12.990;2022-11-12T18:13:51;9.00;99.90
9662;DHT22;24982;52.344;12.990;2022-11-12T18:17:11;8.90;99.90
9662;DHT22;24982;52.344;12.990;2022-11-12T18:20:33;8.90;99.90
9662;DHT22;24982;52.344;12.990;2022-11-12T19:41:09;8.10;99.90
9662;DHT22;24982;52.344;12.990;2022-11-12T19:44:30;8.20;99.90
9662;DHT22;24982;52.344;12.990;2022-11-12T19:47:51;8.20;99.90
9662;DHT22;24982;52.344;12.990;2022-11-12T19:51:12;8.20;99.90
9662;DHT22;24982;52.344;12.990;2022-11-12T19:54:34;8.20;99.90
9662;DHT22;24982;52.344;12.990;2022-11-12T19:57:54;8.30;99.90
9662;DHT22;24982;52.344;12.990;2022-11-12T20:34:45;7.90;99.90
9662;DHT22;24982;52.344;12.990;2022-11-12T20:38:07;8.10;99.90
9662;DHT22;24982;52.344;12.990;2022-11-12T20:41:27;8.00;99.90
9662;DHT22;24982;52.344;12.990;2022-11-12T20:44:50;7.90;99.90
9662;DHT22;24982;52.344;12.990;2022-11-12T22:05:21;7.60;99.90
9662;DHT22;24982;52.344;12.990;2022-11-12T22:08:44;7.60;99.90
9662;DHT22;24982;52.344;12.990;2022-11-12T22:12:04;7.60;99.90
9662;DHT22;24982;52.344;12.990;2022-11-12T22:15:25;7.60;99.90
9662;DHT22;24982;52.344;12.990;2022-11-12T22:18:47;7.60;99.90
9662;DHT22;24982;52.344;12.990;2022-11-12T22:22:08;7.70;99.90
9662;DHT22;24982;52.344;12.990;2022-11-12T22:25:29;7.70;99.90
9662;DHT22;24982;52.344;12.990;2022-11-12T22:28:51;7.70;99.90
9662;DHT22;24982;52.344;12.990;2022-11-12T22:32:12;7.70;99.90
9662;DHT22;24982;52.344;12.990;2022-11-12T22:35:33;7.70;99.90
9662;DHT22;24982;52.344;12.990;2022-11-12T22:38:54;7.70;99.90
9662;DHT22;24982;52.344;12.990;2022-11-12T22:42:16;7.70;99.90
9662;DHT22;24982;52.344;12.990;2022-11-12T22:45:36;7.60;99.90
9662;DHT22;24982;52.344;12.990;2022-11-12T22:48:57;7.70;99.90
9662;DHT22;24982;52.344;12.990;2022-11-12T22:52:18;7.80;99.90
9662;DHT22;24982;52.344;12.990;2022-11-12T22:55:38;7.90;99.90
9662;DHT22;24982;52.344;12.990;2022-11-12T22:59:01;7.90;99.90
9662;DHT22;24982;52.344;12.990;2022-11-12T23:05:44;8.00;99.90
9662;DHT22;24982;52.344;12.990;2022-11-12T23:09:05;7.90;99.90
9662;DHT22;24982;52.344;12.990;2022-11-12T23:12:25;7.90;99.90
9662;DHT22;24982;52.344;12.990;2022-11-12T23:15:50;7.90;99.90
9662;DHT22;24982;52.344;12.990;2022-11-12T23:19:10;7.90;99.90
9662;DHT22;24982;52.344;12.990;2022-11-12T23:22:30;7.90;99.90
9662;DHT22;24982;52.344;12.990;2022-11-12T23:25:51;7.90;99.90
9662;DHT22;24982;52.344;12.990;2022-11-12T23:29:12;7.90;99.90
9662;DHT22;24982;52.344;12.990;2022-11-12T23:32:34;7.90;99.90
9662;DHT22;24982;52.344;12.990;2022-11-12T23:36:02;8.00;99.90
9662;DHT22;24982;52.344;12.990;2022-11-12T23:39:23;7.90;99.90
9662;DHT22;24982;52.344;12.990;2022-11-12T23:42:43;7.90;99.90
9662;DHT22;24982;52.344;12.990;2022-11-12T23:46:04;7.90;99.90
9662;DHT22;24982;52.344;12.990;2022-11-12T23:49:27;8.00;99.90
9662;DHT22;24982;52.344;12.990;2022-11-12T23:52:47;8.10;99.90
9662;DHT22;24982;52.344;12.990;2022-11-12T23:56:09;8.20;99.90
9662;DHT22;24982;52.344;12.990;2022-11-12T23:59:30;8.20;99.90
